Time;durP1;ratioP1;P1;durP2;ratioP2;P2;SDS_P1;SDS_P2;PMS_P1;PMS_P2;Temp;Humidity;BMP_temperature;BMP_pressure;BME280_temperature;BME280_humidity;BME280_pressure;Samples;Min_cycle;Max_cycle;Signal;HPM_P1;HPM_P2
2022/04/30 00:00:47;;;;;;;;;;;8.70;99.90;;;;;;5055143;28;19978;-85
2022/04/30 00:03:13;;;;;;;;;;;8.60;99.90;;;;;;5047381;28;19928;-86
2022/04/30 00:05:40;;;;;;;;;;;8.60;99.90;;;;;;5050863;28;19956;-86
2022/04/30 00:08:08;;;;;;;;;;;8.60;99.90;;;;;;5066437;28;19978;-85
2022/04/30 00:10:37;;;;;;;;;;;8.60;99.90;;;;;;5051596;28;19944;-86
2022/04/30 00:13:06;;;;;;;;;;;8.60;99.90;;;;;;5049467;28;19924;-85
2022/04/30 00:15:34;;;;;;;;;;;8.50;99.90;;;;;;5050251;28;19920;-86
2022/04/30 00:18:01;;;;;;;;;;;8.60;99.90;;;;;;5047669;28;19964;-85
2022/04/30 00:20:28;;;;;;;;;;;8.50;99.90;;;;;;5064328;28;19925;-85
2022/04/30 00:22:55;;;;;;;;;;;8.50;99.90;;;;;;5046060;28;19931;-85
2022/04/30 00:25:23;;;;;;;;;;;8.50;99.90;;;;;;5045825;28;19929;-86
2022/04/30 00:27:50;;;;;;;;;;;8.50;99.90;;;;;;5046837;28;19936;-86
2022/04/30 00:30:19;;;;;;;;;;;8.50;99.90;;;;;;5039071;28;20242;-85
2022/04/30 00:32:49;;;;;;;;;;;8.50;99.90;;;;;;5055791;28;20730;-87
2022/04/30 00:35:16;;;;;;;;;;;8.50;99.90;;;;;;5042745;28;19931;-86
2022/04/30 00:37:43;;;;;;;;;;;8.50;99.90;;;;;;5053965;28;19928;-85
2022/04/30 00:40:10;;;;;;;;;;;8.40;99.90;;;;;;5050116;28;19931;-85
2022/04/30 00:42:38;;;;;;;;;;;8.40;99.90;;;;;;5051950;28;19929;-85
2022/04/30 00:45:05;;;;;;;;;;;8.40;99.90;;;;;;5055834;28;19963;-86
2022/04/30 00:47:33;;;;;;;;;;;8.40;99.90;;;;;;5064142;28;19955;-87
2022/04/30 00:50:00;;;;;;;;;;;8.40;99.90;;;;;;5062587;28;19967;-85
2022/04/30 00:52:27;;;;;;;;;;;9.50;99.90;;;;;;5071235;28;19925;-86
2022/04/30 00:54:57;;;;;;;;;;;8.40;99.90;;;;;;5054339;28;19981;-86
2022/04/30 00:57:25;;;;;;;;;;;8.30;99.90;;;;;;5044669;28;19929;-86
2022/04/30 00:59:59;;;;;;;;;;;8.40;99.90;;;;;;5048114;28;19928;-85
2022/04/30 01:02:28;;;;;;;;;;;8.30;99.90;;;;;;5044795;28;20058;-86
2022/04/30 01:05:14;;;;;;;;;;;;;;;;;;5050037;28;19931;-86
2022/04/30 01:07:42;;;;;;;;;;;8.30;99.90;;;;;;5049146;28;20015;-85
2022/04/30 01:10:09;;;;;;;;;;;8.30;99.90;;;;;;5062987;28;20303;-86
2022/04/30 01:12:36;;;;;;;;;;;8.20;99.90;;;;;;5063975;28;19936;-88
2022/04/30 01:15:04;;;;;;;;;;;8.20;99.90;;;;;;5052251;28;19948;-85
2022/04/30 01:17:31;;;;;;;;;;;8.20;99.90;;;;;;5048631;28;20383;-85
2022/04/30 01:19:59;;;;;;;;;;;8.10;99.90;;;;;;5047715;28;19939;-86
2022/04/30 01:22:27;;;;;;;;;;;8.10;99.90;;;;;;5048391;28;20031;-87
2022/04/30 01:24:56;;;;;;;;;;;8.00;99.90;;;;;;5049150;28;20305;-85
2022/04/30 01:27:26;;;;;;;;;;;7.90;99.90;;;;;;5065845;28;19928;-86
2022/04/30 01:29:53;;;;;;;;;;;;;;;;;;5051229;28;20380;-85
2022/04/30 01:38:00;;;;;;;;;;;8.00;99.90;;;;;;5055666;28;20022;-86
2022/04/30 01:40:28;;;;;;;;;;;8.00;99.90;;;;;;5071154;28;19991;-86
2022/04/30 01:42:58;;;;;;;;;;;8.00;99.90;;;;;;5047310;28;19967;-85
2022/04/30 01:45:25;;;;;;;;;;;8.00;99.90;;;;;;5045421;28;19928;-85
2022/04/30 01:47:52;;;;;;;;;;;8.00;99.90;;;;;;5047501;28;20444;-87
2022/04/30 01:50:18;;;;;;;;;;;8.00;99.90;;;;;;5063901;28;19944;-85
2022/04/30 01:52:45;;;;;;;;;;;8.00;99.90;;;;;;5054269;28;19924;-84
2022/04/30 01:55:12;;;;;;;;;;;8.00;99.90;;;;;;5042103;28;19928;-84
2022/04/30 01:57:40;;;;;;;;;;;8.00;99.90;;;;;;5048346;28;19931;-84
2022/04/30 02:00:08;;;;;;;;;;;;;;;;;;5046492;28;19940;-86
2022/04/30 02:02:43;;;;;;;;;;;8.00;99.90;;;;;;5058918;28;19945;-85
2022/04/30 02:05:12;;;;;;;;;;;8.00;99.90;;;;;;5045996;28;20053;-85
2022/04/30 02:07:39;;;;;;;;;;;7.90;99.90;;;;;;5045818;28;19921;-86
2022/04/30 02:10:07;;;;;;;;;;;7.90;99.90;;;;;;5058082;28;19925;-86
2022/04/30 02:12:34;;;;;;;;;;;7.80;99.90;;;;;;5070309;28;19977;-86
2022/04/30 02:15:04;;;;;;;;;;;;;;;;;;5057947;28;19928;-85
2022/04/30 02:17:36;;;;;;;;;;;10.10;99.90;;;;;;5070456;28;19921;-85
2022/04/30 02:22:50;;;;;;;;;;;;;;;;;;5048059;28;20363;-84
2022/04/30 02:25:18;;;;;;;;;;;7.50;99.90;;;;;;5045931;28;20643;-85
2022/04/30 02:27:45;;;;;;;;;;;;;;;;;;5037274;28;19929;-87
2022/04/30 02:30:14;;;;;;;;;;;7.40;99.90;;;;;;5056747;28;19921;-85
2022/04/30 02:32:43;;;;;;;;;;;7.30;99.90;;;;;;5045475;28;19925;-84
2022/04/30 02:35:15;;;;;;;;;;;7.30;99.90;;;;;;5065440;28;20087;-86
2022/04/30 02:37:44;;;;;;;;;;;7.20;99.90;;;;;;5047744;28;19921;-85
2022/04/30 02:40:14;;;;;;;;;;;7.10;99.90;;;;;;5047666;28;20576;-85
2022/04/30 02:42:42;;;;;;;;;;;7.10;99.90;;;;;;5045074;28;19921;-84
2022/04/30 02:45:09;;;;;;;;;;;7.00;99.90;;;;;;5063846;28;19996;-85
2022/04/30 02:47:37;;;;;;;;;;;7.00;99.90;;;;;;5057125;28;20611;-85
2022/04/30 02:50:05;;;;;;;;;;;9.20;99.90;;;;;;5063968;28;20024;-86
2022/04/30 02:52:33;;;;;;;;;;;;;;;;;;5047071;28;19940;-86
2022/04/30 02:55:01;;;;;;;;;;;6.80;99.90;;;;;;5046264;28;19924;-86
2022/04/30 02:57:38;;;;;;;;;;;6.70;99.90;;;;;;5061443;28;19932;-86
2022/04/30 03:00:04;;;;;;;;;;;6.70;99.90;;;;;;5077068;28;19960;-87
2022/04/30 03:02:56;;;;;;;;;;;6.60;99.90;;;;;;5057877;28;19917;-86
2022/04/30 03:05:26;;;;;;;;;;;6.50;99.90;;;;;;5049925;28;20010;-85
2022/04/30 03:07:53;;;;;;;;;;;6.50;99.90;;;;;;5056246;28;19925;-87
2022/04/30 03:10:20;;;;;;;;;;;6.50;99.90;;;;;;5061289;28;20004;-86
2022/04/30 03:12:47;;;;;;;;;;;6.40;99.90;;;;;;5053790;28;20069;-86
2022/04/30 03:15:27;;;;;;;;;;;6.40;99.90;;;;;;5044628;28;20478;-85
2022/04/30 03:23:40;;;;;;;;;;;6.30;99.90;;;;;;5054587;28;19952;-86
2022/04/30 03:26:08;;;;;;;;;;;6.30;99.90;;;;;;5071257;28;19916;-87
2022/04/30 03:28:43;;;;;;;;;;;6.30;99.90;;;;;;5067179;28;19919;-87
2022/04/30 03:31:11;;;;;;;;;;;6.20;99.90;;;;;;5067397;28;19951;-85
2022/04/30 03:33:38;;;;;;;;;;;6.10;99.90;;;;;;5059106;28;19932;-85
2022/04/30 03:36:09;;;;;;;;;;;6.10;99.90;;;;;;5066140;28;20412;-86
2022/04/30 03:38:36;;;;;;;;;;;6.10;99.90;;;;;;5048405;28;19956;-86
2022/04/30 03:41:05;;;;;;;;;;;;;;;;;;5048538;28;20019;-87
2022/04/30 03:43:32;;;;;;;;;;;6.00;99.90;;;;;;5045231;28;19929;-86
2022/04/30 03:45:59;;;;;;;;;;;5.90;99.90;;;;;;5042939;28;20247;-87
2022/04/30 03:48:26;;;;;;;;;;;5.90;99.90;;;;;;5055333;28;19950;-86
2022/04/30 03:50:56;;;;;;;;;;;5.90;99.90;;;;;;5046929;28;19951;-85
2022/04/30 03:53:25;;;;;;;;;;;5.80;99.90;;;;;;5046472;28;19933;-85
2022/04/30 03:55:52;;;;;;;;;;;5.80;99.90;;;;;;5046632;28;19988;-85
2022/04/30 03:58:18;;;;;;;;;;;5.80;99.90;;;;;;5045928;28;19960;-86
2022/04/30 04:00:46;;;;;;;;;;;5.80;99.90;;;;;;5047331;28;19960;-86
2022/04/30 04:03:14;;;;;;;;;;;5.80;99.90;;;;;;5061169;28;19971;-85
2022/04/30 04:05:41;;;;;;;;;;;5.70;99.90;;;;;;5046643;28;20539;-85
2022/04/30 04:08:12;;;;;;;;;;;5.70;99.90;;;;;;5065015;28;19928;-88
2022/04/30 04:10:43;;;;;;;;;;;5.70;99.90;;;;;;5053752;28;19928;-86
2022/04/30 04:18:51;;;;;;;;;;;5.60;99.90;;;;;;5057315;28;19929;-86
2022/04/30 04:21:19;;;;;;;;;;;5.70;99.90;;;;;;5066179;28;21301;-86
2022/04/30 04:26:31;;;;;;;;;;;5.60;99.90;;;;;;5045814;28;19972;-87
2022/04/30 04:28:58;;;;;;;;;;;5.70;99.90;;;;;;5071155;28;20007;-86
2022/04/30 04:31:26;;;;;;;;;;;4.60;99.90;;;;;;5056684;28;20467;-89
2022/04/30 04:33:53;;;;;;;;;;;5.60;99.90;;;;;;5066329;28;19917;-89
2022/04/30 04:36:20;;;;;;;;;;;5.60;99.90;;;;;;5070368;28;19932;-86
2022/04/30 04:38:47;;;;;;;;;;;5.70;99.90;;;;;;5058136;28;20369;-85
2022/04/30 04:41:18;;;;;;;;;;;5.80;99.90;;;;;;5054624;28;19920;-86
2022/04/30 04:43:46;;;;;;;;;;;5.80;99.90;;;;;;5068197;28;19992;-89
2022/04/30 04:46:15;;;;;;;;;;;5.80;99.90;;;;;;5067572;28;20002;-87
2022/04/30 04:48:41;;;;;;;;;;;5.80;99.90;;;;;;5053539;28;19927;-86
2022/04/30 04:51:09;;;;;;;;;;;5.90;99.90;;;;;;5053624;28;19921;-86
2022/04/30 04:53:36;;;;;;;;;;;5.90;99.90;;;;;;5053129;28;19928;-86
2022/04/30 04:56:04;;;;;;;;;;;5.90;99.90;;;;;;5051432;28;19964;-87
2022/04/30 04:58:30;;;;;;;;;;;7.90;99.90;;;;;;5065543;28;19928;-89
2022/04/30 05:00:59;;;;;;;;;;;6.10;99.90;;;;;;5052689;28;20361;-86
2022/04/30 05:03:26;;;;;;;;;;;6.20;99.90;;;;;;5067232;28;19990;-87
2022/04/30 05:05:53;;;;;;;;;;;6.30;99.90;;;;;;5054024;28;19979;-87
2022/04/30 05:08:20;;;;;;;;;;;6.30;99.90;;;;;;5047214;28;19925;-87
2022/04/30 05:10:47;;;;;;;;;;;6.40;99.90;;;;;;5048107;28;19970;-87
2022/04/30 05:13:13;;;;;;;;;;;7.00;99.90;;;;;;5055449;28;19928;-87
2022/04/30 05:15:40;;;;;;;;;;;6.60;99.90;;;;;;5043385;28;20218;-86
2022/04/30 05:18:09;;;;;;;;;;;6.70;99.90;;;;;;5048612;28;20024;-90
2022/04/30 05:20:36;;;;;;;;;;;6.80;99.90;;;;;;5044631;28;19935;-86
2022/04/30 05:23:04;;;;;;;;;;;;;;;;;;5045420;28;20338;-87
2022/04/30 05:25:31;;;;;;;;;;;7.20;99.90;;;;;;5048629;28;19943;-86
2022/04/30 05:28:01;;;;;;;;;;;7.20;99.90;;;;;;5047035;28;19920;-87
2022/04/30 05:30:30;;;;;;;;;;;7.40;99.90;;;;;;5047729;28;20261;-86
2022/04/30 05:33:00;;;;;;;;;;;7.50;99.90;;;;;;5045802;28;20000;-88
2022/04/30 05:35:29;;;;;;;;;;;7.90;99.90;;;;;;5054554;28;19936;-87
2022/04/30 05:37:57;;;;;;;;;;;8.60;99.90;;;;;;5059206;28;19932;-86
2022/04/30 05:40:24;;;;;;;;;;;10.40;99.90;;;;;;5041226;28;19929;-87
2022/04/30 05:42:52;;;;;;;;;;;10.50;99.90;;;;;;5050408;28;19932;-87
2022/04/30 05:45:19;;;;;;;;;;;11.40;99.90;;;;;;5065943;28;19928;-89
2022/04/30 05:47:46;;;;;;;;;;;12.10;99.90;;;;;;5067413;28;19996;-90
2022/04/30 05:50:13;;;;;;;;;;;12.20;99.90;;;;;;5048831;28;19936;-86
2022/04/30 05:52:45;;;;;;;;;;;13.30;99.90;;;;;;5052382;28;20725;-88
2022/04/30 05:55:14;;;;;;;;;;;15.20;99.90;;;;;;5049767;28;19932;-87
2022/04/30 05:57:44;;;;;;;;;;;15.30;99.90;;;;;;5074015;28;19965;-87
2022/04/30 06:00:18;;;;;;;;;;;16.10;99.90;;;;;;5051870;28;20007;-87
2022/04/30 06:02:48;;;;;;;;;;;17.20;99.90;;;;;;5050816;28;20056;-88
2022/04/30 06:05:16;;;;;;;;;;;18.30;99.90;;;;;;5067026;28;19937;-89
2022/04/30 06:08:00;;;;;;;;;;;18.40;99.90;;;;;;5055112;28;19924;-89
2022/04/30 06:10:27;;;;;;;;;;;19.50;99.90;;;;;;5067619;28;19915;-89
2022/04/30 06:12:59;;;;;;;;;;;18.10;99.90;;;;;;5045492;28;19935;-90
2022/04/30 06:15:28;;;;;;;;;;;17.80;99.90;;;;;;5068996;28;19929;-88
2022/04/30 06:17:56;;;;;;;;;;;17.70;99.90;;;;;;5050711;28;19925;-87
2022/04/30 06:20:25;;;;;;;;;;;17.00;99.90;;;;;;5053725;28;19929;-89
2022/04/30 06:23:07;;;;;;;;;;;16.40;99.90;;;;;;5087249;28;19992;-89
2022/04/30 06:25:35;;;;;;;;;;;15.10;99.90;;;;;;5085404;28;19953;-90
2022/04/30 06:28:05;;;;;;;;;;;15.00;99.90;;;;;;5076016;28;20001;-90
2022/04/30 06:30:39;;;;;;;;;;;14.70;99.90;;;;;;5067750;28;19909;-87
2022/04/30 06:33:25;;;;;;;;;;;14.60;99.90;;;;;;5067463;28;19908;-90
2022/04/30 06:35:53;;;;;;;;;;;14.70;99.90;;;;;;5084147;28;19909;-89
2022/04/30 06:38:23;;;;;;;;;;;14.60;99.90;;;;;;5071205;28;19928;-87
2022/04/30 06:40:50;;;;;;;;;;;14.50;99.90;;;;;;5069462;28;19924;-89
2022/04/30 06:43:17;;;;;;;;;;;14.20;99.90;;;;;;5082470;28;19944;-86
2022/04/30 06:45:47;;;;;;;;;;;15.10;99.90;;;;;;5060995;28;19920;-87
2022/04/30 06:48:14;;;;;;;;;;;14.00;99.90;;;;;;5055748;28;19924;-86
2022/04/30 06:50:41;;;;;;;;;;;14.10;99.90;;;;;;5050201;28;19924;-86
2022/04/30 06:58:53;;;;;;;;;;;13.20;99.90;;;;;;5069453;28;19947;-91
2022/04/30 07:25:16;;;;;;;;;;;15.10;99.90;;;;;;5028495;28;19936;-89
2022/04/30 07:27:43;;;;;;;;;;;15.10;99.90;;;;;;5045069;28;19971;-88
2022/04/30 07:30:13;;;;;;;;;;;15.50;99.90;;;;;;5062213;28;20270;-89
2022/04/30 07:32:43;;;;;;;;;;;15.90;99.90;;;;;;5061639;28;20381;-91
2022/04/30 07:35:10;;;;;;;;;;;16.10;99.90;;;;;;5047279;28;19988;-89
2022/04/30 07:37:37;;;;;;;;;;;16.10;99.90;;;;;;5040981;28;19978;-88
2022/04/30 07:40:04;;;;;;;;;;;17.30;99.90;;;;;;5065468;28;19947;-89
2022/04/30 07:42:40;;;;;;;;;;;17.30;99.90;;;;;;5048178;28;19927;-90
2022/04/30 07:45:07;;;;;;;;;;;17.70;99.90;;;;;;5065992;28;19920;-88
2022/04/30 07:47:38;;;;;;;;;;;18.40;99.90;;;;;;5049493;28;19940;-89
2022/04/30 07:50:06;;;;;;;;;;;18.10;99.90;;;;;;5054177;28;19936;-88
2022/04/30 07:52:33;;;;;;;;;;;17.20;99.90;;;;;;5068679;28;19951;-89
2022/04/30 07:55:09;;;;;;;;;;;17.40;99.90;;;;;;5067337;28;19980;-90
2022/04/30 07:57:40;;;;;;;;;;;18.10;99.90;;;;;;5065743;28;19929;-88
2022/04/30 08:00:11;;;;;;;;;;;18.10;99.90;;;;;;5067788;28;19925;-89
2022/04/30 08:02:42;;;;;;;;;;;19.00;99.90;;;;;;5068087;28;20050;-89
2022/04/30 08:05:11;;;;;;;;;;;;;;;;;;5069026;28;20364;-90
2022/04/30 08:07:41;;;;;;;;;;;21.10;99.90;;;;;;5057045;28;20396;-89
2022/04/30 08:10:11;;;;;;;;;;;22.70;99.90;;;;;;5056297;28;20314;-89
2022/04/30 08:12:46;;;;;;;;;;;23.70;99.10;;;;;;5059076;28;20296;-89
2022/04/30 08:15:13;;;;;;;;;;;24.10;98.50;;;;;;5055042;28;19925;-89
2022/04/30 08:17:42;;;;;;;;;;;24.20;98.00;;;;;;5069363;28;19924;-89
2022/04/30 08:20:12;;;;;;;;;;;25.10;97.10;;;;;;5060614;28;20026;-89
2022/04/30 08:22:40;;;;;;;;;;;25.90;95.10;;;;;;5054012;28;19929;-89
2022/04/30 08:25:07;;;;;;;;;;;26.30;92.60;;;;;;5055916;28;19947;-90
2022/04/30 08:27:34;;;;;;;;;;;25.90;91.60;;;;;;5076200;28;20000;-91
2022/04/30 08:30:33;;;;;;;;;;;25.20;89.30;;;;;;5070325;28;19925;-91
2022/04/30 08:33:12;;;;;;;;;;;24.90;91.60;;;;;;5082228;28;19931;-91
2022/04/30 08:35:41;;;;;;;;;;;24.40;89.50;;;;;;5061645;28;20708;-89
2022/04/30 08:38:08;;;;;;;;;;;24.40;89.60;;;;;;5050046;28;19921;-88
2022/04/30 08:40:38;;;;;;;;;;;24.00;86.30;;;;;;5047787;28;19936;-88
2022/04/30 08:43:07;;;;;;;;;;;23.80;87.20;;;;;;5053800;28;19932;-90
2022/04/30 08:45:36;;;;;;;;;;;23.80;88.00;;;;;;5051720;28;20079;-88
2022/04/30 08:48:05;;;;;;;;;;;24.00;87.50;;;;;;5054821;28;20043;-85
2022/04/30 08:50:37;;;;;;;;;;;24.20;86.50;;;;;;5066525;28;19920;-91
2022/04/30 08:53:06;;;;;;;;;;;24.20;84.00;;;;;;5082050;28;19909;-88
2022/04/30 08:55:36;;;;;;;;;;;25.00;85.30;;;;;;5065519;28;19966;-87
2022/04/30 08:58:05;;;;;;;;;;;24.40;81.60;;;;;;5044952;28;19921;-87
2022/04/30 09:00:42;;;;;;;;;;;23.60;78.70;;;;;;5049772;28;19972;-88
2022/04/30 09:03:13;;;;;;;;;;;23.70;78.10;;;;;;5070025;28;20054;-88
2022/04/30 09:05:41;;;;;;;;;;;22.90;76.00;;;;;;5040964;28;19925;-88
2022/04/30 09:08:10;;;;;;;;;;;22.50;79.90;;;;;;5072862;28;19944;-88
2022/04/30 09:10:39;;;;;;;;;;;22.70;78.70;;;;;;5064986;28;20019;-89
2022/04/30 09:13:07;;;;;;;;;;;22.50;81.10;;;;;;5048890;28;20405;-88
2022/04/30 09:15:35;;;;;;;;;;;22.70;82.30;;;;;;5051637;28;19925;-89
2022/04/30 09:18:02;;;;;;;;;;;22.40;76.90;;;;;;5051791;28;19929;-89
2022/04/30 09:20:29;;;;;;;;;;;21.70;76.40;;;;;;5052325;28;19929;-89
2022/04/30 09:22:59;;;;;;;;;;;21.40;79.50;;;;;;5057293;28;19916;-90
2022/04/30 09:25:36;;;;;;;;;;;21.60;81.40;;;;;;5059124;28;19925;-88
2022/04/30 09:28:03;;;;;;;;;;;21.70;80.80;;;;;;5051696;28;19921;-88
2022/04/30 09:30:31;;;;;;;;;;;21.70;80.20;;;;;;5065269;28;19932;-88
2022/04/30 09:32:58;;;;;;;;;;;21.80;81.00;;;;;;5051497;28;19990;-88
2022/04/30 09:38:11;;;;;;;;;;;20.90;79.50;;;;;;5048726;28;19970;-86
2022/04/30 09:40:38;;;;;;;;;;;21.10;82.20;;;;;;5049636;28;20347;-86
2022/04/30 09:43:05;;;;;;;;;;;21.60;82.20;;;;;;5048191;28;20028;-86
2022/04/30 09:45:33;;;;;;;;;;;21.70;79.90;;;;;;5048060;28;19925;-87
2022/04/30 09:48:00;;;;;;;;;;;21.30;78.80;;;;;;5062476;28;19995;-87
2022/04/30 09:56:03;;;;;;;;;;;19.10;79.60;;;;;;5055752;28;19931;-88
2022/04/30 09:58:29;;;;;;;;;;;18.60;80.70;;;;;;5062665;28;20278;-88
2022/04/30 10:00:59;;;;;;;;;;;18.00;80.30;;;;;;5049399;28;19925;-89
2022/04/30 10:03:29;;;;;;;;;;;17.40;81.00;;;;;;5058966;28;19928;-90
2022/04/30 10:06:01;;;;;;;;;;;17.20;82.20;;;;;;5069481;28;20134;-88
2022/04/30 10:08:30;;;;;;;;;;;17.20;82.60;;;;;;5065161;28;19936;-89
2022/04/30 10:11:04;;;;;;;;;;;17.20;83.30;;;;;;5047410;28;19931;-90
2022/04/30 10:13:34;;;;;;;;;;;17.50;84.10;;;;;;5066452;28;20419;-89
2022/04/30 10:16:02;;;;;;;;;;;17.50;84.80;;;;;;5069771;28;19935;-89
2022/04/30 10:18:33;;;;;;;;;;;17.60;83.60;;;;;;5052944;28;20288;-88
2022/04/30 10:21:02;;;;;;;;;;;17.20;82.80;;;;;;5059536;28;20047;-88
2022/04/30 10:23:31;;;;;;;;;;;16.90;83.40;;;;;;5055394;28;19921;-89
2022/04/30 10:26:06;;;;;;;;;;;16.70;84.30;;;;;;5070821;28;19976;-88
2022/04/30 10:28:33;;;;;;;;;;;17.10;85.90;;;;;;5054161;28;19925;-89
2022/04/30 10:31:00;;;;;;;;;;;17.70;84.70;;;;;;5058617;28;20003;-89
2022/04/30 10:33:27;;;;;;;;;;;18.00;84.10;;;;;;5051554;28;19948;-89
2022/04/30 10:36:04;;;;;;;;;;;18.10;84.00;;;;;;5061613;28;20016;-89
2022/04/30 10:38:32;;;;;;;;;;;18.10;83.00;;;;;;5043834;28;19928;-89
2022/04/30 10:40:59;;;;;;;;;;;18.30;83.70;;;;;;5051766;28;20392;-90
2022/04/30 10:43:31;;;;;;;;;;;18.00;81.50;;;;;;5060032;28;20011;-91
2022/04/30 10:45:59;;;;;;;;;;;18.10;81.70;;;;;;5083653;28;19920;-90
2022/04/30 10:48:32;;;;;;;;;;;18.30;82.70;;;;;;5076958;28;19947;-92
2022/04/30 10:51:05;;;;;;;;;;;19.90;84.40;;;;;;5069961;28;19956;-90
2022/04/30 10:53:36;;;;;;;;;;;19.30;81.40;;;;;;5069502;28;19967;-91
2022/04/30 10:56:06;;;;;;;;;;;19.40;81.00;;;;;;5056854;28;19924;-91
2022/04/30 10:58:35;;;;;;;;;;;19.40;80.60;;;;;;5064769;28;19917;-90
2022/04/30 11:01:10;;;;;;;;;;;19.20;80.60;;;;;;5066169;28;19928;-92
2022/04/30 11:03:39;;;;;;;;;;;19.00;81.10;;;;;;5073238;28;20345;-91
2022/04/30 11:06:10;;;;;;;;;;;18.80;81.00;;;;;;5075753;28;20031;-90
2022/04/30 11:08:38;;;;;;;;;;;18.70;80.50;;;;;;5039502;28;20447;-90
2022/04/30 11:11:06;;;;;;;;;;;18.80;80.90;;;;;;5068273;28;20309;-90
2022/04/30 11:13:34;;;;;;;;;;;19.10;80.80;;;;;;5064430;28;19984;-89
2022/04/30 11:16:02;;;;;;;;;;;19.30;80.90;;;;;;5046819;28;19978;-89
2022/04/30 11:18:28;;;;;;;;;;;19.30;81.00;;;;;;5056280;28;20381;-89
2022/04/30 11:21:00;;;;;;;;;;;19.10;80.30;;;;;;5051648;28;19928;-89
2022/04/30 11:23:29;;;;;;;;;;;18.90;80.60;;;;;;5057725;28;20417;-89
2022/04/30 11:25:59;;;;;;;;;;;18.90;81.70;;;;;;5047561;28;20003;-89
2022/04/30 11:28:30;;;;;;;;;;;19.00;81.40;;;;;;5061338;28;20027;-89
2022/04/30 11:31:00;;;;;;;;;;;19.30;81.50;;;;;;5096829;28;19924;-89
2022/04/30 11:33:34;;;;;;;;;;;19.50;81.20;;;;;;5059138;28;20358;-89
2022/04/30 11:36:00;;;;;;;;;;;19.50;80.20;;;;;;5045390;28;20435;-87
2022/04/30 11:38:27;;;;;;;;;;;19.30;80.00;;;;;;5037427;28;19921;-89
2022/04/30 11:41:04;;;;;;;;;;;19.20;80.10;;;;;;5036158;28;19936;-87
2022/04/30 11:43:31;;;;;;;;;;;19.20;80.40;;;;;;5032165;28;19952;-88
2022/04/30 11:46:01;;;;;;;;;;;19.00;80.00;;;;;;5045912;28;19909;-90
2022/04/30 11:48:30;;;;;;;;;;;19.00;79.60;;;;;;5075679;28;19943;-88
2022/04/30 11:51:01;;;;;;;;;;;18.90;79.20;;;;;;5054756;28;19927;-87
2022/04/30 11:53:28;;;;;;;;;;;18.80;79.30;;;;;;5046235;28;20000;-88
2022/04/30 11:55:54;;;;;;;;;;;18.60;79.00;;;;;;5064149;28;20077;-88
2022/04/30 11:58:24;;;;;;;;;;;18.40;78.90;;;;;;5044484;28;19925;-88
2022/04/30 12:00:53;;;;;;;;;;;18.30;78.00;;;;;;5065029;28;19968;-88
2022/04/30 12:03:25;;;;;;;;;;;17.90;78.30;;;;;;5064782;28;19986;-87
2022/04/30 12:05:53;;;;;;;;;;;18.00;79.60;;;;;;5074201;28;19932;-89
2022/04/30 12:08:20;;;;;;;;;;;18.30;79.20;;;;;;5057207;28;19920;-88
2022/04/30 12:10:55;;;;;;;;;;;18.80;79.80;;;;;;5070331;28;20364;-89
2022/04/30 12:13:24;;;;;;;;;;;19.20;78.40;;;;;;5056878;28;19923;-88
2022/04/30 12:16:02;;;;;;;;;;;19.30;78.30;;;;;;5051825;28;20023;-88
2022/04/30 12:26:58;;;;;;;;;;;20.50;78.00;;;;;;5045959;28;19985;-88
2022/04/30 12:29:26;;;;;;;;;;;20.50;77.80;;;;;;5059498;28;19970;-88
2022/04/30 12:31:53;;;;;;;;;;;20.60;77.10;;;;;;5049251;28;20352;-89
2022/04/30 12:34:25;;;;;;;;;;;20.70;76.50;;;;;;5081034;28;19974;-90
2022/04/30 12:36:53;;;;;;;;;;;20.40;75.10;;;;;;5055229;28;19921;-89
2022/04/30 12:39:23;;;;;;;;;;;20.40;76.00;;;;;;5060994;28;20392;-89
2022/04/30 12:41:57;;;;;;;;;;;20.40;74.80;;;;;;5056351;28;19931;-88
2022/04/30 12:44:30;;;;;;;;;;;20.30;72.80;;;;;;5063180;28;19968;-88
2022/04/30 12:46:57;;;;;;;;;;;20.00;73.00;;;;;;5065911;28;19967;-89
2022/04/30 12:49:31;;;;;;;;;;;19.80;73.90;;;;;;5055169;28;19946;-88
2022/04/30 12:51:59;;;;;;;;;;;19.50;72.90;;;;;;5050588;28;19944;-89
2022/04/30 12:54:29;;;;;;;;;;;18.90;73.00;;;;;;5049794;28;19924;-87
2022/04/30 12:56:56;;;;;;;;;;;18.60;73.10;;;;;;5057186;28;19920;-88
2022/04/30 12:59:27;;;;;;;;;;;18.70;74.40;;;;;;5072683;28;19980;-87
2022/04/30 13:01:56;;;;;;;;;;;18.80;74.40;;;;;;5059854;28;19921;-88
2022/04/30 13:04:23;;;;;;;;;;;19.10;75.10;;;;;;5051126;28;20020;-89
2022/04/30 13:06:53;;;;;;;;;;;19.50;75.30;;;;;;5042612;28;19955;-90
2022/04/30 13:14:53;;;;;;;;;;;19.30;73.60;;;;;;5055605;28;19978;-88
2022/04/30 13:17:22;;;;;;;;;;;19.40;74.70;;;;;;5084741;28;19976;-89
2022/04/30 13:19:51;;;;;;;;;;;19.60;75.00;;;;;;5046605;28;20047;-91
2022/04/30 13:22:18;;;;;;;;;;;19.80;73.70;;;;;;5068300;28;19924;-87
2022/04/30 13:24:45;;;;;;;;;;;20.10;74.60;;;;;;5052953;28;20281;-89
2022/04/30 13:27:14;;;;;;;;;;;20.40;73.30;;;;;;5072630;28;20442;-89
2022/04/30 13:29:53;;;;;;;;;;;20.50;73.80;;;;;;5069851;28;20004;-87
2022/04/30 13:32:23;;;;;;;;;;;20.30;73.40;;;;;;5067346;28;20334;-87
2022/04/30 13:34:55;;;;;;;;;;;19.80;72.70;;;;;;5047762;28;21186;-87
2022/04/30 13:37:22;;;;;;;;;;;18.70;72.70;;;;;;5070596;28;19941;-88
2022/04/30 13:39:49;;;;;;;;;;;19.80;74.40;;;;;;5043333;28;19943;-87
2022/04/30 13:42:16;;;;;;;;;;;18.10;73.30;;;;;;5053509;28;19931;-87
2022/04/30 13:44:43;;;;;;;;;;;17.50;73.60;;;;;;5043739;28;19927;-88
2022/04/30 13:47:14;;;;;;;;;;;17.40;74.50;;;;;;5059784;28;19951;-90
2022/04/30 13:49:44;;;;;;;;;;;17.40;75.30;;;;;;5055635;28;20012;-89
2022/04/30 13:52:10;;;;;;;;;;;17.70;75.80;;;;;;5047298;28;19929;-90
2022/04/30 13:54:37;;;;;;;;;;;18.40;76.10;;;;;;5062993;28;19932;-90
2022/04/30 13:57:11;;;;;;;;;;;19.40;76.10;;;;;;5059349;28;19931;-89
2022/04/30 13:59:39;;;;;;;;;;;19.90;75.90;;;;;;5052968;28;20003;-88
2022/04/30 14:02:14;;;;;;;;;;;20.70;75.70;;;;;;5072043;28;20020;-88
2022/04/30 14:04:52;;;;;;;;;;;21.20;74.50;;;;;;5070876;28;19960;-88
2022/04/30 14:07:26;;;;;;;;;;;21.40;73.60;;;;;;5056076;28;19928;-88
2022/04/30 14:10:16;;;;;;;;;;;21.00;71.90;;;;;;5081886;28;19917;-88
2022/04/30 14:12:46;;;;;;;;;;;20.70;72.00;;;;;;5076185;28;19921;-89
2022/04/30 14:15:21;;;;;;;;;;;20.70;71.80;;;;;;5067186;28;19909;-88
2022/04/30 14:20:50;;;;;;;;;;;20.70;72.30;;;;;;5038991;28;19917;-88
2022/04/30 14:26:53;;;;;;;;;;;20.10;72.50;;;;;;5048960;28;20008;-88
2022/04/30 14:29:20;;;;;;;;;;;19.70;71.30;;;;;;5062240;28;19921;-88
2022/04/30 14:31:48;;;;;;;;;;;19.50;71.90;;;;;;5047021;28;19958;-88
2022/04/30 14:34:18;;;;;;;;;;;19.40;72.60;;;;;;5055412;28;20016;-88
2022/04/30 14:36:52;;;;;;;;;;;19.60;72.60;;;;;;5064423;28;19920;-88
2022/04/30 14:39:19;;;;;;;;;;;19.60;73.30;;;;;;5056992;28;19928;-90
2022/04/30 14:41:47;;;;;;;;;;;19.60;74.50;;;;;;5037300;28;19921;-90
2022/04/30 14:44:16;;;;;;;;;;;19.60;75.00;;;;;;5069006;28;20025;-90
2022/04/30 14:46:44;;;;;;;;;;;19.50;75.50;;;;;;5049355;28;19921;-91
2022/04/30 14:49:11;;;;;;;;;;;19.40;75.10;;;;;;5034427;28;19982;-90
2022/04/30 14:51:39;;;;;;;;;;;19.30;75.40;;;;;;5053078;28;19963;-90
2022/04/30 14:54:07;;;;;;;;;;;19.20;75.80;;;;;;5055545;28;19921;-90
2022/04/30 14:56:36;;;;;;;;;;;19.10;76.30;;;;;;5035414;28;19921;-90
2022/04/30 14:59:04;;;;;;;;;;;19.10;77.20;;;;;;5054118;28;19931;-90
2022/04/30 15:01:31;;;;;;;;;;;19.20;77.00;;;;;;5050229;28;19967;-90
2022/04/30 15:03:58;;;;;;;;;;;19.20;76.90;;;;;;5056546;28;19974;-89
2022/04/30 15:06:27;;;;;;;;;;;19.10;76.30;;;;;;5054930;28;19935;-89
2022/04/30 15:08:54;;;;;;;;;;;18.80;75.80;;;;;;5063162;28;19931;-89
2022/04/30 15:11:22;;;;;;;;;;;18.80;77.00;;;;;;5085379;28;19908;-89
2022/04/30 15:13:49;;;;;;;;;;;18.80;77.20;;;;;;5073457;28;20024;-89
2022/04/30 15:16:18;;;;;;;;;;;18.90;77.00;;;;;;5062014;28;19925;-89
2022/04/30 15:18:45;;;;;;;;;;;19.00;77.90;;;;;;5061008;28;19927;-89
2022/04/30 15:21:12;;;;;;;;;;;19.10;76.90;;;;;;5064593;28;19971;-89
2022/04/30 15:23:39;;;;;;;;;;;19.20;77.50;;;;;;5059419;28;20035;-89
2022/04/30 15:26:06;;;;;;;;;;;19.20;77.10;;;;;;5053865;28;19927;-89
2022/04/30 15:28:34;;;;;;;;;;;19.10;76.80;;;;;;5047650;28;19936;-88
2022/04/30 15:31:01;;;;;;;;;;;19.00;77.10;;;;;;5047064;28;19999;-89
2022/04/30 15:33:28;;;;;;;;;;;18.80;76.60;;;;;;5061124;28;19943;-89
2022/04/30 15:35:54;;;;;;;;;;;18.60;76.90;;;;;;5066509;28;20655;-90
2022/04/30 15:38:21;;;;;;;;;;;18.40;78.10;;;;;;5048328;28;19969;-89
2022/04/30 15:40:48;;;;;;;;;;;18.40;78.50;;;;;;5050707;28;19952;-89
2022/04/30 15:43:15;;;;;;;;;;;18.20;78.10;;;;;;5040905;28;20416;-89
2022/04/30 15:45:44;;;;;;;;;;;18.10;78.50;;;;;;5052600;28;20031;-89
2022/04/30 15:53:51;;;;;;;;;;;17.70;80.50;;;;;;5063695;28;19927;-89
2022/04/30 15:56:19;;;;;;;;;;;17.60;81.10;;;;;;5038794;28;19921;-88
2022/04/30 15:58:49;;;;;;;;;;;17.50;81.30;;;;;;5045318;28;19928;-88
2022/04/30 16:01:18;;;;;;;;;;;17.60;82.20;;;;;;5034812;28;20296;-88
2022/04/30 16:03:48;;;;;;;;;;;17.20;81.70;;;;;;5040540;28;21010;-88